Riverton, WY

1:45 AM MDT on September 01, 2014 (GMT -0600)
Thermopolis | Change Station
CLOSE
Current Station
Airport
Location: Thermopolis,
Elevation: 7300 ft
Nearby Weather Stations

Elev 7300 ft 43.46 °N, 108.24 °W | Updated 10 minutes ago

Clear
Clear
46 °F
Feels Like 43 °F
N
7
Wind Variable Wind from SE

Today
High -- | Low -- °F
--% Chance of Precip.
Yesterday
High -- | Low -- °F
Precip. -- in
6:38 AM 7:48 PM
Waxing Crescent, 38% visible
Pressure 30.18 in
Visibility 10.0 miles
Clouds Clear
Windchill 43 °F
Dew Point 39 °F
Humidity 76%
Rainfall 0.00 in
Snow Depth Not available.
UV 0 out of 12
Pollen 7.30 out of 12
Air Quality Not available.
Flu Activity Not available.
METAR KTBX 010735Z AUTO 14006KT 10SM CLR 08/04 A3018 RMK AO2

More Conditions Fewer Conditions

Pressure 30.18 in
Visibility 10.0 miles
Clouds Clear
Windchill 43 °F
Dew Point 39 °F
Humidity 76%
Rainfall 0.00 in
Snow Depth Not available.
UV 0 out of 12
Pollen 7.30 out of 12
Air Quality Not available.
Flu Activity Not available.
METAR KTBX 010735Z AUTO 14006KT 10SM CLR 08/04 A3018 RMK AO2

More Conditions Fewer Conditions

10-Day Weather Forecast

Almanac

Astronomy

Sep. 01, 2014 Rise Set
Actual Time 6:38 AM MDT 7:48 PM MDT
Civil Twilight 6:08 AM MDT 8:17 PM MDT
Nautical Twilight 5:33 AM MDT 8:52 PM MDT
Astronomical Twilight 4:56 AM MDT 9:29 PM MDT
Moon 1:37 PM MDT 11:41 PM MDT
Length of Visible Light 14h 08m
Length of Day
13h 10m
Tomorrow will be 2m 50s shorter.
Waxing Crescent, 38% of the Moon is Illuminated
Today
Waxing Crescent
Sep 2
First Quarter
Sep 8
Full
Sep 15
Last Quarter
Sep 24
New

Today's Extremes

State Highs State Lows

Community

WunderPhotos

Upload Photos

1,749,154 photos uploaded!

Nearby

Snow Depth

Station Depth Elevation
Townsend Creek 0 in 8700 ft
Big Sandy Opening 1 in 9080 ft
Gunsight Pass 1 in 9820 ft
New Fork Lake 1 in 8340 ft
Kendall R.S. 1 in 7740 ft

Earthquake Activity

City Distance Mag. Time & Date
No recent earthquake activity has been reported nearby.
Minimum magnitude displayed is 2.5.

Coastal Water Temperatures

Place Temperature
No Stations Reporting

Nearby Weather Stations